Terminal Aerodrome Forecast
Issued by NWS

Home | Current Version | Previous Version | Text Only | Print | Product List | Glossary On
Versions: 1 2 3 4 5 6 7 8 9 10 11 12 13 14 15
000
FTUS45 KVEF 020500
TAFBIH
TAF
KBIH 020533Z 0206/0306 33006KT P6SM SCT050 BKN090
     FM022000 30006KT P6SM SCT050 BKN070 PROB30 0220/0224 -SHRA
      BKN050=

USA.gov is the U.S. government's official web portal to all federal, state and local government web resources and services.